createdAt,value
2022-11-12T00:01:52.019Z,100.00
2022-11-12T00:07:00.441Z,100.00
2022-11-12T00:12:09.114Z,100.00
2022-11-12T00:17:21.363Z,100.00
2022-11-12T00:22:29.736Z,100.00
2022-11-12T00:27:39.909Z,100.00
2022-11-12T00:32:50.991Z,100.00
2022-11-12T00:38:02.114Z,100.00
2022-11-12T00:43:10.654Z,100.00
2022-11-12T00:48:21.370Z,100.00
2022-11-12T00:53:31.752Z,100.00
2022-11-12T00:58:39.807Z,100.00
2022-11-12T01:03:52.618Z,100.00
2022-11-12T01:09:01.407Z,100.00
2022-11-12T01:14:12.100Z,100.00
2022-11-12T01:19:25.472Z,100.00
2022-11-12T01:24:34.042Z,100.00
2022-11-12T01:29:42.517Z,100.00
2022-11-12T01:34:53.963Z,100.00
2022-11-12T01:40:02.188Z,100.00
2022-11-12T01:45:17.308Z,100.00
2022-11-12T01:50:34.590Z,100.00
2022-11-12T01:55:47.750Z,100.00
2022-11-12T02:00:56.258Z,100.00
2022-11-12T02:06:14.689Z,100.00
2022-11-12T02:11:24.551Z,100.00
2022-11-12T02:16:36.218Z,100.00
2022-11-12T02:21:47.930Z,100.00
2022-11-12T02:26:58.339Z,100.00
2022-11-12T02:32:07.295Z,100.00
2022-11-12T02:37:18.188Z,100.00
2022-11-12T02:42:29.620Z,100.00
2022-11-12T02:47:38.145Z,100.00
2022-11-12T02:52:50.099Z,100.00
2022-11-12T02:58:00.533Z,100.00
2022-11-12T03:03:08.575Z,100.00
2022-11-12T03:08:19.704Z,100.00
2022-11-12T03:13:28.035Z,100.00
2022-11-12T03:18:37.868Z,100.00
2022-11-12T03:23:48.639Z,100.00
2022-11-12T03:28:57.988Z,100.00
2022-11-12T03:34:06.360Z,100.00
2022-11-12T03:39:17.185Z,100.00
2022-11-12T03:44:25.684Z,100.00
2022-11-12T03:49:34.052Z,100.00
2022-11-12T03:54:46.078Z,100.00
2022-11-12T03:59:54.344Z,100.00
2022-11-12T04:05:15.368Z,100.00
2022-11-12T04:10:26.389Z,100.00
2022-11-12T04:15:34.742Z,100.00
2022-11-12T04:21:01.452Z,100.00
2022-11-12T04:26:27.598Z,100.00
2022-11-12T04:31:38.451Z,100.00
2022-11-12T04:36:46.576Z,100.00
2022-11-12T04:42:09.900Z,100.00
2022-11-12T04:47:18.164Z,100.00
2022-11-12T04:52:26.833Z,100.00
2022-11-12T04:57:38.302Z,100.00
2022-11-12T05:02:49.123Z,100.00
2022-11-12T05:07:57.292Z,100.00
2022-11-12T05:13:08.162Z,100.00
2022-11-12T05:18:16.199Z,100.00
2022-11-12T05:23:27.990Z,100.00
2022-11-12T05:28:40.653Z,100.00
2022-11-12T05:33:49.107Z,100.00
2022-11-12T05:38:57.685Z,100.00
2022-11-12T05:44:09.769Z,100.00
2022-11-12T05:49:17.976Z,100.00
2022-11-12T05:54:26.277Z,100.00
2022-11-12T05:59:37.022Z,100.00
2022-11-12T06:04:45.144Z,100.00
2022-11-12T06:09:53.179Z,100.00
2022-11-12T06:15:03.779Z,100.00
2022-11-12T06:20:13.501Z,100.00
2022-11-12T06:25:21.613Z,100.00
2022-11-12T06:30:32.868Z,100.00
2022-11-12T06:35:43.078Z,100.00
2022-11-12T06:40:51.805Z,100.00
2022-11-12T06:46:09.538Z,100.00
2022-11-12T06:51:22.104Z,100.00
2022-11-12T06:56:30.727Z,100.00
2022-11-12T07:01:42.013Z,100.00
2022-11-12T07:06:50.556Z,100.00
2022-11-12T07:12:01.662Z,100.00
2022-11-12T07:17:12.441Z,100.00
2022-11-12T07:22:21.326Z,100.00
2022-11-12T07:27:34.611Z,100.00
2022-11-12T07:32:51.656Z,100.00
2022-11-12T07:38:04.545Z,100.00
2022-11-12T07:43:12.988Z,100.00
2022-11-12T07:48:24.620Z,100.00
2022-11-12T07:53:34.001Z,100.00
2022-11-12T07:58:42.429Z,100.00
2022-11-12T08:03:56.015Z,100.00
2022-11-12T08:09:08.795Z,100.00
2022-11-12T08:14:17.123Z,100.00
2022-11-12T08:19:27.870Z,100.00
2022-11-12T08:24:36.341Z,100.00
2022-11-12T08:29:44.836Z,100.00
2022-11-12T08:34:55.723Z,100.00
2022-11-12T08:40:03.702Z,100.00
2022-11-12T08:45:12.917Z,100.00
2022-11-12T08:50:24.219Z,100.00
2022-11-12T08:55:33.417Z,100.00
2022-11-12T09:00:44.332Z,100.00
2022-11-12T09:05:55.642Z,100.00
2022-11-12T09:11:03.748Z,100.00
2022-11-12T09:16:13.094Z,100.00
2022-11-12T09:21:27.403Z,100.00
2022-11-12T09:26:36.552Z,100.00
2022-11-12T09:31:44.915Z,100.00
2022-11-12T09:36:55.625Z,100.00
2022-11-12T09:42:11.602Z,100.00
2022-11-12T09:47:26.842Z,100.00
2022-11-12T09:52:42.349Z,100.00
2022-11-12T09:57:54.024Z,100.00
2022-11-12T10:03:10.388Z,100.00
2022-11-12T10:08:37.011Z,100.00
2022-11-12T10:13:54.036Z,100.00
2022-11-12T10:19:15.795Z,100.00
2022-11-12T10:24:31.771Z,100.00
2022-11-12T10:29:50.071Z,100.00
2022-11-12T10:35:02.898Z,100.00
2022-11-12T10:40:35.460Z,100.00
2022-11-12T10:45:43.940Z,100.00
2022-11-12T10:50:52.570Z,100.00
2022-11-12T10:56:05.215Z,100.00
2022-11-12T11:01:20.605Z,100.00
2022-11-12T11:06:35.281Z,100.00
2022-11-12T11:11:53.733Z,100.00
2022-11-12T11:17:08.633Z,100.00
2022-11-12T11:22:42.222Z,100.00
2022-11-12T11:28:06.873Z,100.00
2022-11-12T11:33:40.812Z,99.62
2022-11-12T11:38:59.479Z,100.00
2022-11-12T11:44:23.030Z,100.00
2022-11-12T11:50:01.701Z,100.00
2022-11-12T11:55:21.872Z,100.00
2022-11-12T12:00:39.982Z,100.00
2022-11-12T12:06:01.748Z,100.00
2022-11-12T12:11:19.155Z,99.62
2022-11-12T12:16:45.383Z,98.85
2022-11-12T12:21:55.915Z,98.50
2022-11-12T12:27:12.846Z,98.33
2022-11-12T12:32:32.856Z,98.53
2022-11-12T12:37:49.003Z,99.69
2022-11-12T12:43:02.858Z,99.92
2022-11-12T12:48:19.869Z,98.68
2022-11-12T12:53:38.384Z,98.82
2022-11-12T12:58:49.820Z,98.83
2022-11-12T13:04:03.408Z,98.88
2022-11-12T13:09:28.842Z,99.52
2022-11-12T13:15:10.661Z,99.69
2022-11-12T13:20:37.476Z,99.84
2022-11-12T13:25:48.420Z,98.50
2022-11-12T13:31:10.179Z,97.95
2022-11-12T13:36:32.594Z,99.59
2022-11-12T13:41:55.570Z,98.56
2022-11-12T13:47:04.826Z,99.91
2022-11-12T13:52:18.855Z,99.74
2022-11-12T13:57:31.277Z,99.31
2022-11-12T14:02:41.807Z,99.37
2022-11-12T14:08:18.854Z,98.34
2022-11-12T14:13:53.180Z,95.47
2022-11-12T14:19:31.252Z,93.40
2022-11-12T14:24:44.765Z,94.26
2022-11-12T14:30:11.084Z,94.66
2022-11-12T14:35:28.567Z,95.24
2022-11-12T14:40:48.257Z,96.00
2022-11-12T14:46:00.944Z,96.48
2022-11-12T14:51:14.418Z,96.82
2022-11-12T14:56:35.408Z,97.48
2022-11-12T15:02:31.364Z,98.42
2022-11-12T15:07:42.952Z,99.26
2022-11-12T15:12:54.414Z,99.72
2022-11-12T15:18:05.780Z,100.00
2022-11-12T15:23:20.441Z,100.00
2022-11-12T15:28:31.509Z,100.00
2022-11-12T15:33:41.091Z,100.00
2022-11-12T15:38:54.684Z,100.00
2022-11-12T15:44:05.668Z,100.00
2022-11-12T15:49:15.929Z,100.00
2022-11-12T15:54:27.228Z,100.00
2022-11-12T15:59:41.056Z,100.00
2022-11-12T16:04:49.710Z,100.00
2022-11-12T16:10:02.905Z,100.00
2022-11-12T16:15:18.541Z,100.00
2022-11-12T16:20:32.401Z,100.00
2022-11-12T16:25:45.107Z,100.00
2022-11-12T16:30:56.406Z,100.00
2022-11-12T16:36:05.013Z,100.00
2022-11-12T16:41:14.982Z,100.00
2022-11-12T16:46:31.790Z,100.00
2022-11-12T16:51:40.323Z,100.00
2022-11-12T16:56:48.826Z,100.00
2022-11-12T17:01:59.525Z,100.00
2022-11-12T17:07:08.868Z,100.00
2022-11-12T17:12:17.257Z,100.00
2022-11-12T17:17:28.654Z,100.00
2022-11-12T17:22:37.547Z,100.00
2022-11-12T17:27:46.180Z,100.00
2022-11-12T17:33:01.723Z,100.00
2022-11-12T17:38:09.957Z,100.00
2022-11-12T17:43:18.677Z,100.00
2022-11-12T17:48:29.949Z,100.00
2022-11-12T17:53:38.482Z,100.00
2022-11-12T17:58:48.539Z,100.00
2022-11-12T18:04:00.743Z,100.00
2022-11-12T18:09:11.054Z,100.00
2022-11-12T18:14:20.028Z,100.00
2022-11-12T18:19:30.769Z,100.00
2022-11-12T18:24:39.529Z,100.00
2022-11-12T18:29:48.341Z,100.00
2022-11-12T18:34:59.337Z,100.00
2022-11-12T18:40:08.196Z,100.00
2022-11-12T18:45:18.025Z,100.00
2022-11-12T18:50:29.333Z,100.00
2022-11-12T18:55:37.903Z,100.00
2022-11-12T19:00:47.253Z,100.00
2022-11-12T19:06:06.590Z,100.00
2022-11-12T19:11:16.426Z,100.00
2022-11-12T19:16:26.706Z,100.00
2022-11-12T19:21:37.472Z,100.00
2022-11-12T19:26:45.735Z,100.00
2022-11-12T19:31:54.178Z,100.00
2022-11-12T19:37:31.738Z,100.00
2022-11-12T19:42:33.700Z,100.00
2022-11-12T19:47:43.086Z,100.00
2022-11-12T19:52:57.007Z,100.00
2022-11-12T19:58:05.948Z,100.00
2022-11-12T20:03:14.830Z,100.00
2022-11-12T20:08:27.132Z,100.00
2022-11-12T20:13:38.974Z,100.00
2022-11-12T20:18:51.046Z,100.00
2022-11-12T20:24:04.164Z,100.00
2022-11-12T20:29:13.088Z,100.00
2022-11-12T20:34:25.335Z,100.00
2022-11-12T20:39:37.639Z,100.00
2022-11-12T20:44:46.372Z,100.00
2022-11-12T20:49:55.195Z,100.00
2022-11-12T20:55:08.060Z,100.00
2022-11-12T21:00:24.302Z,100.00
2022-11-12T21:05:36.171Z,100.00
2022-11-12T21:10:52.311Z,100.00
2022-11-12T21:16:06.416Z,100.00
2022-11-12T21:21:20.460Z,100.00
2022-11-12T21:26:32.813Z,100.00
2022-11-12T21:31:51.540Z,100.00
2022-11-12T21:37:01.620Z,100.00
2022-11-12T21:42:19.251Z,100.00
2022-11-12T21:47:29.204Z,100.00
2022-11-12T21:52:42.325Z,100.00
2022-11-12T21:57:54.400Z,100.00
2022-11-12T22:03:04.486Z,100.00
2022-11-12T22:08:14.742Z,100.00
2022-11-12T22:13:28.020Z,100.00
2022-11-12T22:18:37.986Z,100.00
2022-11-12T22:23:48.408Z,100.00
2022-11-12T22:29:02.734Z,100.00
2022-11-12T22:34:13.002Z,100.00
2022-11-12T22:39:22.352Z,100.00
2022-11-12T22:44:34.724Z,100.00
2022-11-12T22:49:44.889Z,100.00
2022-11-12T22:54:56.474Z,100.00
2022-11-12T23:00:13.983Z,100.00
2022-11-12T23:05:26.114Z,100.00
2022-11-12T23:10:40.426Z,100.00
2022-11-12T23:15:57.659Z,100.00
2022-11-12T23:21:08.349Z,100.00
2022-11-12T23:26:19.160Z,100.00
2022-11-12T23:31:33.762Z,100.00
2022-11-12T23:36:42.920Z,100.00
2022-11-12T23:42:00.515Z,100.00
2022-11-12T23:47:12.635Z,100.00
2022-11-12T23:52:22.063Z,100.00
2022-11-12T23:57:33.417Z,100.00
